createdAt,value
2019-01-31T00:00:17.637Z,99352.34
2019-01-31T00:05:44.462Z,99349.64
2019-01-31T00:11:05.701Z,99352.45
2019-01-31T00:16:58.786Z,99366.22
2019-01-31T00:22:41.769Z,99371.66
2019-01-31T00:28:03.397Z,99377.68
2019-01-31T00:33:27.086Z,99370.56
2019-01-31T00:39:03.366Z,99371.68
2019-01-31T00:44:55.441Z,99380.41
2019-01-31T00:50:17.904Z,99380.41
2019-01-31T00:55:49.516Z,99391.53
2019-01-31T01:01:23.277Z,99395.38
2019-01-31T01:07:14.958Z,99396.52
2019-01-31T01:13:00.771Z,99395.11
2019-01-31T01:18:32.990Z,99403.81
2019-01-31T01:23:54.033Z,99414.72
2019-01-31T01:30:01.925Z,99413.94
2019-01-31T01:35:38.886Z,99411.80
2019-01-31T01:41:35.389Z,99415.17
2019-01-31T01:47:17.348Z,99422.37
2019-01-31T01:53:04.229Z,99428.43
2019-01-31T01:59:01.525Z,99430.78
2019-01-31T02:04:41.654Z,99444.97
2019-01-31T02:10:42.692Z,99449.79
2019-01-31T02:16:29.439Z,99447.21
2019-01-31T02:21:59.454Z,99443.31
2019-01-31T02:27:22.726Z,99438.80
2019-01-31T02:32:51.838Z,99449.45
2019-01-31T02:38:48.492Z,99448.27
2019-01-31T02:44:34.372Z,99445.24
2019-01-31T02:50:03.990Z,99446.75
2019-01-31T02:55:26.525Z,99450.48
2019-01-31T03:00:59.195Z,99443.95
2019-01-31T03:07:21.924Z,99448.48
2019-01-31T03:12:39.599Z,99446.77
2019-01-31T03:18:08.687Z,99444.72
2019-01-31T03:23:44.036Z,99451.45
2019-01-31T03:29:22.409Z,99450.47
2019-01-31T03:35:04.427Z,99455.03
2019-01-31T03:40:46.405Z,99455.56
2019-01-31T03:46:26.898Z,99445.80
2019-01-31T03:52:21.129Z,99447.09
2019-01-31T03:57:47.128Z,99443.83
2019-01-31T04:03:06.173Z,99443.83
2019-01-31T04:08:17.190Z,99444.89
2019-01-31T04:13:31.311Z,99443.80
2019-01-31T04:18:44.332Z,99445.11
2019-01-31T04:23:55.237Z,99439.44
2019-01-31T04:29:02.868Z,99444.59
2019-01-31T04:34:14.984Z,99445.44
2019-01-31T04:39:26.763Z,99446.15
2019-01-31T04:44:38.505Z,99445.20
2019-01-31T04:49:49.628Z,99452.46
2019-01-31T04:54:55.787Z,99446.83
2019-01-31T05:00:05.420Z,99446.02
2019-01-31T05:05:16.807Z,99447.83
2019-01-31T05:10:26.727Z,99449.67
2019-01-31T05:15:34.987Z,99450.56
2019-01-31T05:20:44.264Z,99453.64
2019-01-31T05:25:53.337Z,99458.82
2019-01-31T05:31:27.662Z,99462.66
2019-01-31T05:36:54.829Z,99462.66
2019-01-31T05:42:05.823Z,99462.22
2019-01-31T05:47:15.699Z,99462.06
2019-01-31T05:52:23.360Z,99465.94
2019-01-31T05:57:33.352Z,99471.91
2019-01-31T06:02:46.086Z,99474.41
2019-01-31T06:07:58.380Z,99466.67
2019-01-31T06:13:09.072Z,99478.56
2019-01-31T06:18:18.988Z,99477.65
2019-01-31T06:23:27.993Z,99479.64
2019-01-31T06:28:43.484Z,99475.40
2019-01-31T06:33:58.979Z,99475.98
2019-01-31T06:39:12.741Z,99475.91
2019-01-31T06:44:23.138Z,99481.52
2019-01-31T06:49:35.045Z,99487.52
2019-01-31T06:54:42.141Z,99496.22
2019-01-31T06:59:53.028Z,99505.55
2019-01-31T07:05:07.818Z,99514.16
2019-01-31T07:10:28.885Z,99516.35
2019-01-31T07:15:38.777Z,99518.17
2019-01-31T07:20:47.724Z,99521.63
2019-01-31T07:25:57.720Z,99527.03
2019-01-31T07:31:10.318Z,99518.47
2019-01-31T07:36:22.887Z,99513.91
2019-01-31T07:41:41.378Z,99525.80
2019-01-31T07:46:49.000Z,99520.05
2019-01-31T07:51:58.049Z,99529.06
2019-01-31T07:57:10.884Z,99530.08
2019-01-31T08:02:27.526Z,99529.14
2019-01-31T08:07:36.449Z,99543.67
2019-01-31T08:12:48.806Z,99535.27
2019-01-31T08:18:00.581Z,99538.16
2019-01-31T08:23:08.425Z,99541.24
2019-01-31T08:28:19.212Z,99549.75
2019-01-31T08:33:30.085Z,99550.02
2019-01-31T08:38:36.952Z,99558.45
2019-01-31T08:43:46.730Z,99565.15
2019-01-31T08:48:59.427Z,99564.19
2019-01-31T08:54:12.138Z,99559.92
2019-01-31T08:59:24.229Z,99562.62
2019-01-31T09:04:43.070Z,99559.70
2019-01-31T09:09:54.893Z,99561.10
2019-01-31T09:15:06.480Z,99557.89
2019-01-31T09:20:20.431Z,99557.89
2019-01-31T09:26:05.316Z,99567.58
2019-01-31T09:31:48.835Z,99562.57
2019-01-31T09:37:24.873Z,99570.52
2019-01-31T09:42:56.900Z,99567.01
2019-01-31T09:48:35.569Z,99559.70
2019-01-31T09:54:03.109Z,99559.08
2019-01-31T09:59:24.537Z,99563.20
2019-01-31T10:05:00.324Z,99564.65
2019-01-31T10:10:24.896Z,99569.47
2019-01-31T10:16:13.797Z,99574.14
2019-01-31T10:22:27.413Z,99574.00
2019-01-31T10:28:23.370Z,99572.22
2019-01-31T10:33:44.325Z,99565.97
2019-01-31T10:39:21.381Z,99557.16
2019-01-31T10:45:06.052Z,99556.67
2019-01-31T10:50:31.604Z,99556.09
2019-01-31T10:56:29.346Z,99545.39
2019-01-31T11:02:41.711Z,99544.92
2019-01-31T11:08:33.156Z,99543.92
2019-01-31T11:14:20.706Z,99526.08
2019-01-31T11:19:45.044Z,99525.28
2019-01-31T11:25:21.050Z,99520.08
2019-01-31T11:30:49.224Z,99521.29
2019-01-31T11:36:23.394Z,99517.97
2019-01-31T11:41:54.570Z,99521.05
2019-01-31T11:47:30.627Z,99515.63
2019-01-31T11:53:23.113Z,99507.75
2019-01-31T11:59:02.694Z,99505.31
2019-01-31T12:04:12.519Z,99514.41
2019-01-31T12:09:22.156Z,99514.84
2019-01-31T12:14:35.140Z,99515.14
2019-01-31T12:19:44.487Z,99520.09
2019-01-31T12:24:51.905Z,99520.92
2019-01-31T12:30:00.017Z,99517.34
2019-01-31T12:35:07.535Z,99508.27
2019-01-31T12:40:17.990Z,99511.77
2019-01-31T12:45:25.772Z,99506.63
2019-01-31T12:50:35.493Z,99506.58
2019-01-31T12:55:44.719Z,99516.81
2019-01-31T13:00:55.601Z,99512.02
2019-01-31T13:06:07.411Z,99509.23
2019-01-31T13:11:18.573Z,99507.68
2019-01-31T13:16:28.962Z,99499.13
2019-01-31T13:21:41.578Z,99508.68
2019-01-31T13:26:53.287Z,99505.98
2019-01-31T13:32:04.986Z,99497.63
2019-01-31T13:37:17.509Z,99499.80
2019-01-31T13:42:28.324Z,99493.30
2019-01-31T13:47:38.296Z,99499.23
2019-01-31T13:52:48.035Z,99507.22
2019-01-31T13:57:57.964Z,99509.66
2019-01-31T14:03:03.860Z,99508.84
2019-01-31T14:08:12.616Z,99507.75
2019-01-31T14:13:25.121Z,99507.75
2019-01-31T14:18:39.560Z,99497.94
2019-01-31T14:23:51.212Z,99496.07
2019-01-31T14:29:03.113Z,99487.03
2019-01-31T14:34:12.590Z,99483.88
2019-01-31T14:39:23.342Z,99482.72
2019-01-31T14:44:36.260Z,99473.80
2019-01-31T14:49:48.772Z,99478.15
2019-01-31T14:55:00.390Z,99474.97
2019-01-31T15:00:14.502Z,99487.09
2019-01-31T15:05:23.505Z,99484.99
2019-01-31T15:10:33.487Z,99475.23
2019-01-31T15:15:44.303Z,99476.64
2019-01-31T15:20:56.898Z,99475.72
2019-01-31T15:26:08.962Z,99464.97
2019-01-31T15:31:16.726Z,99464.34
2019-01-31T15:36:23.528Z,99468.59
2019-01-31T15:41:32.029Z,99466.61
2019-01-31T15:46:43.732Z,99468.09
2019-01-31T15:51:51.789Z,99462.89
2019-01-31T15:57:00.673Z,99440.88
2019-01-31T16:02:09.800Z,99439.11
2019-01-31T16:07:20.780Z,99434.77
2019-01-31T16:12:35.157Z,99440.42
2019-01-31T16:17:47.846Z,99430.72
2019-01-31T16:23:00.003Z,99422.92
2019-01-31T16:28:08.165Z,99417.84
2019-01-31T16:33:18.016Z,99407.44
2019-01-31T16:38:27.524Z,99404.33
2019-01-31T16:43:37.360Z,99398.16
2019-01-31T16:48:47.183Z,99389.89
2019-01-31T16:53:57.128Z,99385.03
2019-01-31T16:59:08.045Z,99379.00
2019-01-31T17:04:20.749Z,99373.42
2019-01-31T17:09:33.526Z,99366.54
2019-01-31T17:14:44.328Z,99365.41
2019-01-31T17:19:58.019Z,99360.58
2019-01-31T17:25:11.828Z,99356.38
2019-01-31T17:30:23.526Z,99344.72
2019-01-31T17:35:31.268Z,99341.05
2019-01-31T17:40:43.121Z,99347.71
2019-01-31T17:45:56.718Z,99333.83
2019-01-31T17:51:04.802Z,99336.83
2019-01-31T17:56:15.673Z,99336.43
2019-01-31T18:01:25.944Z,99335.38
2019-01-31T18:06:39.523Z,99341.44
2019-01-31T18:11:51.140Z,99330.16
2019-01-31T18:17:03.725Z,99321.41
2019-01-31T18:22:11.027Z,99322.72
2019-01-31T18:27:20.009Z,99322.50
2019-01-31T18:32:29.228Z,99312.27
2019-01-31T18:37:40.226Z,99315.57
2019-01-31T18:42:51.131Z,99312.63
2019-01-31T18:48:03.846Z,99312.93
2019-01-31T18:53:13.717Z,99314.70
2019-01-31T18:58:21.421Z,99305.64
2019-01-31T19:03:32.230Z,99303.47
2019-01-31T19:08:45.832Z,99299.70
2019-01-31T19:13:56.648Z,99289.69
2019-01-31T19:19:11.372Z,99293.53
2019-01-31T19:24:20.549Z,99272.94
2019-01-31T19:29:31.311Z,99272.94
2019-01-31T19:34:47.113Z,99275.14
2019-01-31T19:39:57.047Z,99270.51
2019-01-31T19:45:05.964Z,99264.51
2019-01-31T19:50:13.891Z,99255.51
2019-01-31T19:55:23.174Z,99240.10
2019-01-31T20:00:30.782Z,99221.41
2019-01-31T20:05:40.031Z,99217.38
2019-01-31T20:10:53.764Z,99203.73
2019-01-31T20:16:02.893Z,99199.58
2019-01-31T20:21:14.510Z,99188.77
2019-01-31T20:26:25.194Z,99188.62
2019-01-31T20:31:35.077Z,99169.77
2019-01-31T20:36:44.631Z,99168.08
2019-01-31T20:41:54.752Z,99156.90
2019-01-31T20:47:07.370Z,99166.25
2019-01-31T20:52:19.952Z,99164.13
2019-01-31T20:57:32.164Z,99159.45
2019-01-31T21:02:44.706Z,99163.61
2019-01-31T21:07:56.446Z,99163.89
2019-01-31T21:13:06.024Z,99164.87
2019-01-31T21:18:18.799Z,99151.42
2019-01-31T21:23:32.550Z,99145.44
2019-01-31T21:28:50.471Z,99145.05
2019-01-31T21:33:58.822Z,99140.68
2019-01-31T21:39:11.766Z,99142.95
2019-01-31T21:44:21.282Z,99114.54
2019-01-31T21:50:33.608Z,99117.08
2019-01-31T21:55:49.094Z,99099.87
2019-01-31T22:01:00.170Z,99094.48
2019-01-31T22:06:29.970Z,99089.54
2019-01-31T22:11:41.167Z,99077.05
2019-01-31T22:16:51.975Z,99057.89
2019-01-31T22:21:58.809Z,99049.18
2019-01-31T22:27:12.552Z,99042.62
2019-01-31T22:32:20.599Z,99031.28
2019-01-31T22:37:30.097Z,99026.00
2019-01-31T22:42:38.336Z,99026.09
2019-01-31T22:47:45.237Z,99037.36
2019-01-31T22:52:57.940Z,99031.87
2019-01-31T22:58:07.115Z,99025.69
2019-01-31T23:03:20.678Z,99007.66
2019-01-31T23:08:34.022Z,99007.82
2019-01-31T23:13:44.884Z,99009.81
2019-01-31T23:18:52.682Z,99011.36
2019-01-31T23:24:07.974Z,99004.13
2019-01-31T23:29:15.271Z,99006.95
2019-01-31T23:34:25.264Z,99002.61
2019-01-31T23:39:36.466Z,98998.64
2019-01-31T23:44:46.954Z,98994.72
2019-01-31T23:49:55.877Z,98980.78
2019-01-31T23:55:06.705Z,98969.69
